sensor_id;sensor_type;location;lat;lon;timestamp;temperature;humidity
21090;DHT22;10703;51.020;6.128;2022-10-19T00:01:14;8.20;99.90
21090;DHT22;10703;51.020;6.128;2022-10-19T00:03:42;8.10;99.90
21090;DHT22;10703;51.020;6.128;2022-10-19T00:06:15;8.00;99.90
21090;DHT22;10703;51.020;6.128;2022-10-19T00:08:42;8.10;99.90
21090;DHT22;10703;51.020;6.128;2022-10-19T00:11:10;8.00;99.90
21090;DHT22;10703;51.020;6.128;2022-10-19T00:13:38;8.00;99.90
21090;DHT22;10703;51.020;6.128;2022-10-19T00:16:10;7.90;99.90
21090;DHT22;10703;51.020;6.128;2022-10-19T00:18:37;7.80;99.90
21090;DHT22;10703;51.020;6.128;2022-10-19T00:21:06;7.80;99.90
21090;DHT22;10703;51.020;6.128;2022-10-19T00:23:33;7.80;99.90
21090;DHT22;10703;51.020;6.128;2022-10-19T00:26:00;7.90;99.90
21090;DHT22;10703;51.020;6.128;2022-10-19T00:28:27;7.80;99.90
21090;DHT22;10703;51.020;6.128;2022-10-19T00:30:54;7.70;99.90
21090;DHT22;10703;51.020;6.128;2022-10-19T00:33:21;7.70;99.90
21090;DHT22;10703;51.020;6.128;2022-10-19T00:35:50;7.70;99.90
21090;DHT22;10703;51.020;6.128;2022-10-19T00:38:19;7.70;99.90
21090;DHT22;10703;51.020;6.128;2022-10-19T00:40:47;7.70;99.90
21090;DHT22;10703;51.020;6.128;2022-10-19T00:43:23;7.70;99.90
21090;DHT22;10703;51.020;6.128;2022-10-19T00:45:50;7.70;99.90
21090;DHT22;10703;51.020;6.128;2022-10-19T00:48:24;7.80;99.90
21090;DHT22;10703;51.020;6.128;2022-10-19T00:50:53;7.80;99.90
21090;DHT22;10703;51.020;6.128;2022-10-19T00:53:23;7.80;99.90
21090;DHT22;10703;51.020;6.128;2022-10-19T00:55:50;7.80;99.90
21090;DHT22;10703;51.020;6.128;2022-10-19T00:58:17;7.80;99.90
21090;DHT22;10703;51.020;6.128;2022-10-19T01:00:44;7.80;99.90
21090;DHT22;10703;51.020;6.128;2022-10-19T01:03:11;7.80;99.90
21090;DHT22;10703;51.020;6.128;2022-10-19T01:05:38;7.80;99.90
21090;DHT22;10703;51.020;6.128;2022-10-19T01:08:06;7.80;99.90
21090;DHT22;10703;51.020;6.128;2022-10-19T01:10:41;7.80;99.90
21090;DHT22;10703;51.020;6.128;2022-10-19T01:13:28;7.70;99.90
21090;DHT22;10703;51.020;6.128;2022-10-19T01:16:05;7.70;99.90
21090;DHT22;10703;51.020;6.128;2022-10-19T01:18:44;7.70;99.90
21090;DHT22;10703;51.020;6.128;2022-10-19T01:21:30;7.60;99.90
21090;DHT22;10703;51.020;6.128;2022-10-19T01:38:21;7.50;99.90
21090;DHT22;10703;51.020;6.128;2022-10-19T01:40:53;7.50;99.90
21090;DHT22;10703;51.020;6.128;2022-10-19T01:46:13;7.60;99.90
21090;DHT22;10703;51.020;6.128;2022-10-19T01:48:53;7.70;99.90
21090;DHT22;10703;51.020;6.128;2022-10-19T01:51:29;7.60;99.90
21090;DHT22;10703;51.020;6.128;2022-10-19T01:54:01;7.70;99.90
21090;DHT22;10703;51.020;6.128;2022-10-19T01:56:30;7.70;99.90
21090;DHT22;10703;51.020;6.128;2022-10-19T01:58:59;7.70;99.90
21090;DHT22;10703;51.020;6.128;2022-10-19T02:01:29;7.70;99.90
21090;DHT22;10703;51.020;6.128;2022-10-19T02:03:59;7.70;99.90
21090;DHT22;10703;51.020;6.128;2022-10-19T02:06:28;7.60;99.90
21090;DHT22;10703;51.020;6.128;2022-10-19T02:08:55;7.70;99.90
21090;DHT22;10703;51.020;6.128;2022-10-19T02:11:23;7.70;99.90
21090;DHT22;10703;51.020;6.128;2022-10-19T02:14:00;7.80;99.90
21090;DHT22;10703;51.020;6.128;2022-10-19T02:16:36;7.70;99.90
21090;DHT22;10703;51.020;6.128;2022-10-19T02:19:06;7.80;99.90
21090;DHT22;10703;51.020;6.128;2022-10-19T02:21:34;7.80;99.90
21090;DHT22;10703;51.020;6.128;2022-10-19T02:24:00;7.70;99.90
21090;DHT22;10703;51.020;6.128;2022-10-19T02:26:27;7.70;99.90
21090;DHT22;10703;51.020;6.128;2022-10-19T02:28:55;7.60;99.90
21090;DHT22;10703;51.020;6.128;2022-10-19T02:31:22;7.60;99.90
21090;DHT22;10703;51.020;6.128;2022-10-19T02:33:49;7.50;99.90
21090;DHT22;10703;51.020;6.128;2022-10-19T02:36:17;7.50;99.90
21090;DHT22;10703;51.020;6.128;2022-10-19T02:38:44;7.50;99.90
21090;DHT22;10703;51.020;6.128;2022-10-19T02:41:33;7.50;99.90
21090;DHT22;10703;51.020;6.128;2022-10-19T02:44:06;7.60;99.90
21090;DHT22;10703;51.020;6.128;2022-10-19T02:46:37;7.60;99.90
21090;DHT22;10703;51.020;6.128;2022-10-19T02:49:11;7.70;99.90
21090;DHT22;10703;51.020;6.128;2022-10-19T02:51:45;7.70;99.90
21090;DHT22;10703;51.020;6.128;2022-10-19T02:54:22;7.70;99.90
21090;DHT22;10703;51.020;6.128;2022-10-19T02:56:49;7.70;99.90
21090;DHT22;10703;51.020;6.128;2022-10-19T02:59:16;7.80;99.90
21090;DHT22;10703;51.020;6.128;2022-10-19T03:01:43;7.80;99.90
21090;DHT22;10703;51.020;6.128;2022-10-19T03:04:09;7.80;99.90
21090;DHT22;10703;51.020;6.128;2022-10-19T03:06:36;7.80;99.90
21090;DHT22;10703;51.020;6.128;2022-10-19T03:09:02;7.80;99.90
21090;DHT22;10703;51.020;6.128;2022-10-19T03:11:29;7.80;99.90
21090;DHT22;10703;51.020;6.128;2022-10-19T03:13:56;7.80;99.90
21090;DHT22;10703;51.020;6.128;2022-10-19T03:16:22;7.80;99.90
21090;DHT22;10703;51.020;6.128;2022-10-19T03:18:49;7.90;99.90
21090;DHT22;10703;51.020;6.128;2022-10-19T03:21:17;7.90;99.90
21090;DHT22;10703;51.020;6.128;2022-10-19T03:23:44;7.90;99.90
21090;DHT22;10703;51.020;6.128;2022-10-19T03:26:15;7.80;99.90
21090;DHT22;10703;51.020;6.128;2022-10-19T03:28:42;8.10;99.90
21090;DHT22;10703;51.020;6.128;2022-10-19T03:31:09;8.00;99.90
21090;DHT22;10703;51.020;6.128;2022-10-19T03:33:35;8.00;99.90
21090;DHT22;10703;51.020;6.128;2022-10-19T03:36:32;7.90;99.90
21090;DHT22;10703;51.020;6.128;2022-10-19T03:39:02;7.90;99.90
21090;DHT22;10703;51.020;6.128;2022-10-19T03:41:31;8.00;99.90
21090;DHT22;10703;51.020;6.128;2022-10-19T03:43:57;7.90;99.90
21090;DHT22;10703;51.020;6.128;2022-10-19T03:46:30;7.90;99.90
21090;DHT22;10703;51.020;6.128;2022-10-19T03:48:57;8.00;99.90
21090;DHT22;10703;51.020;6.128;2022-10-19T03:51:26;7.90;99.90
21090;DHT22;10703;51.020;6.128;2022-10-19T03:54:02;7.90;99.90
21090;DHT22;10703;51.020;6.128;2022-10-19T03:56:30;7.90;99.90
21090;DHT22;10703;51.020;6.128;2022-10-19T03:58:58;8.00;99.90
21090;DHT22;10703;51.020;6.128;2022-10-19T04:03:57;7.90;99.90
21090;DHT22;10703;51.020;6.128;2022-10-19T04:06:27;7.80;99.90
21090;DHT22;10703;51.020;6.128;2022-10-19T04:08:54;7.60;99.90
21090;DHT22;10703;51.020;6.128;2022-10-19T04:11:24;7.50;99.90
21090;DHT22;10703;51.020;6.128;2022-10-19T04:13:52;7.40;99.90
21090;DHT22;10703;51.020;6.128;2022-10-19T04:16:20;7.30;99.90
21090;DHT22;10703;51.020;6.128;2022-10-19T04:18:47;7.20;99.90
21090;DHT22;10703;51.020;6.128;2022-10-19T04:21:23;7.20;99.90
21090;DHT22;10703;51.020;6.128;2022-10-19T04:23:56;7.10;99.90
21090;DHT22;10703;51.020;6.128;2022-10-19T04:26:23;7.00;99.90
21090;DHT22;10703;51.020;6.128;2022-10-19T04:28:49;7.00;99.90
21090;DHT22;10703;51.020;6.128;2022-10-19T04:31:16;6.90;99.90
21090;DHT22;10703;51.020;6.128;2022-10-19T04:33:43;6.90;99.90
21090;DHT22;10703;51.020;6.128;2022-10-19T04:36:10;6.80;99.90
21090;DHT22;10703;51.020;6.128;2022-10-19T04:38:38;6.70;99.90
21090;DHT22;10703;51.020;6.128;2022-10-19T04:41:08;6.70;99.90
21090;DHT22;10703;51.020;6.128;2022-10-19T04:43:35;6.60;99.90
21090;DHT22;10703;51.020;6.128;2022-10-19T04:46:04;6.60;99.90
21090;DHT22;10703;51.020;6.128;2022-10-19T04:48:32;6.50;99.90
21090;DHT22;10703;51.020;6.128;2022-10-19T04:51:00;6.50;99.90
21090;DHT22;10703;51.020;6.128;2022-10-19T04:53:26;6.40;99.90
21090;DHT22;10703;51.020;6.128;2022-10-19T04:55:53;6.40;99.90
21090;DHT22;10703;51.020;6.128;2022-10-19T04:58:20;6.40;99.90
21090;DHT22;10703;51.020;6.128;2022-10-19T05:00:46;6.40;99.90
21090;DHT22;10703;51.020;6.128;2022-10-19T05:03:13;6.40;99.90
21090;DHT22;10703;51.020;6.128;2022-10-19T05:05:40;6.40;99.90
21090;DHT22;10703;51.020;6.128;2022-10-19T05:08:08;6.50;99.90
21090;DHT22;10703;51.020;6.128;2022-10-19T05:10:36;6.60;99.90
21090;DHT22;10703;51.020;6.128;2022-10-19T05:13:03;6.60;99.90
21090;DHT22;10703;51.020;6.128;2022-10-19T05:15:30;6.70;99.90
21090;DHT22;10703;51.020;6.128;2022-10-19T05:17:57;6.90;99.90
21090;DHT22;10703;51.020;6.128;2022-10-19T05:20:24;7.00;99.90
21090;DHT22;10703;51.020;6.128;2022-10-19T05:22:50;6.80;99.90
21090;DHT22;10703;51.020;6.128;2022-10-19T05:25:17;6.70;99.90
21090;DHT22;10703;51.020;6.128;2022-10-19T05:27:43;6.60;99.90
21090;DHT22;10703;51.020;6.128;2022-10-19T05:30:10;6.50;99.90
21090;DHT22;10703;51.020;6.128;2022-10-19T05:32:39;6.60;99.90
21090;DHT22;10703;51.020;6.128;2022-10-19T05:35:06;6.70;99.90
21090;DHT22;10703;51.020;6.128;2022-10-19T05:37:33;6.70;99.90
21090;DHT22;10703;51.020;6.128;2022-10-19T05:40:00;6.60;99.90
21090;DHT22;10703;51.020;6.128;2022-10-19T05:42:26;6.50;99.90
21090;DHT22;10703;51.020;6.128;2022-10-19T05:44:53;6.40;99.90
21090;DHT22;10703;51.020;6.128;2022-10-19T05:47:20;6.40;99.90
21090;DHT22;10703;51.020;6.128;2022-10-19T05:49:46;6.40;99.90
21090;DHT22;10703;51.020;6.128;2022-10-19T05:52:13;6.40;99.90
21090;DHT22;10703;51.020;6.128;2022-10-19T05:54:40;6.40;99.90
21090;DHT22;10703;51.020;6.128;2022-10-19T05:57:07;6.30;99.90
21090;DHT22;10703;51.020;6.128;2022-10-19T05:59:34;6.30;99.90
21090;DHT22;10703;51.020;6.128;2022-10-19T06:02:00;6.30;99.90
21090;DHT22;10703;51.020;6.128;2022-10-19T06:04:27;6.30;99.90
21090;DHT22;10703;51.020;6.128;2022-10-19T06:06:54;6.20;99.90
21090;DHT22;10703;51.020;6.128;2022-10-19T06:09:20;6.20;99.90
21090;DHT22;10703;51.020;6.128;2022-10-19T06:11:47;6.30;99.90
21090;DHT22;10703;51.020;6.128;2022-10-19T06:14:15;6.30;99.90
21090;DHT22;10703;51.020;6.128;2022-10-19T06:16:41;6.50;99.90
21090;DHT22;10703;51.020;6.128;2022-10-19T06:19:08;6.60;99.90
21090;DHT22;10703;51.020;6.128;2022-10-19T06:21:35;6.60;99.90
21090;DHT22;10703;51.020;6.128;2022-10-19T06:24:03;6.60;99.90
21090;DHT22;10703;51.020;6.128;2022-10-19T06:26:32;6.70;99.90
21090;DHT22;10703;51.020;6.128;2022-10-19T06:29:00;6.80;99.90
21090;DHT22;10703;51.020;6.128;2022-10-19T06:31:34;6.80;99.90
21090;DHT22;10703;51.020;6.128;2022-10-19T06:34:02;6.90;99.90
21090;DHT22;10703;51.020;6.128;2022-10-19T06:36:30;6.90;99.90
21090;DHT22;10703;51.020;6.128;2022-10-19T06:38:57;7.00;99.90
21090;DHT22;10703;51.020;6.128;2022-10-19T06:41:25;7.00;99.90
21090;DHT22;10703;51.020;6.128;2022-10-19T06:43:53;7.00;99.90
21090;DHT22;10703;51.020;6.128;2022-10-19T06:46:22;7.10;99.90
21090;DHT22;10703;51.020;6.128;2022-10-19T06:48:50;7.10;99.90
21090;DHT22;10703;51.020;6.128;2022-10-19T06:51:18;7.10;99.90
21090;DHT22;10703;51.020;6.128;2022-10-19T06:53:45;7.20;99.90
21090;DHT22;10703;51.020;6.128;2022-10-19T06:56:11;7.20;99.90
21090;DHT22;10703;51.020;6.128;2022-10-19T06:58:39;7.30;99.90
21090;DHT22;10703;51.020;6.128;2022-10-19T07:01:06;7.40;99.90
21090;DHT22;10703;51.020;6.128;2022-10-19T07:03:35;7.40;99.90
21090;DHT22;10703;51.020;6.128;2022-10-19T07:06:04;7.40;99.90
21090;DHT22;10703;51.020;6.128;2022-10-19T07:08:32;7.50;99.90
21090;DHT22;10703;51.020;6.128;2022-10-19T07:11:01;7.60;99.90
21090;DHT22;10703;51.020;6.128;2022-10-19T07:13:29;7.70;99.90
21090;DHT22;10703;51.020;6.128;2022-10-19T07:16:02;7.70;99.90
21090;DHT22;10703;51.020;6.128;2022-10-19T07:18:31;7.80;99.90
21090;DHT22;10703;51.020;6.128;2022-10-19T07:20:59;7.90;99.90
21090;DHT22;10703;51.020;6.128;2022-10-19T07:23:28;8.00;99.90
21090;DHT22;10703;51.020;6.128;2022-10-19T07:25:55;8.00;99.90
21090;DHT22;10703;51.020;6.128;2022-10-19T07:28:28;8.20;99.90
21090;DHT22;10703;51.020;6.128;2022-10-19T07:30:55;8.30;99.90
21090;DHT22;10703;51.020;6.128;2022-10-19T07:33:22;8.50;99.90
21090;DHT22;10703;51.020;6.128;2022-10-19T07:35:49;8.70;99.90
21090;DHT22;10703;51.020;6.128;2022-10-19T07:38:16;8.90;99.90
21090;DHT22;10703;51.020;6.128;2022-10-19T07:40:42;9.00;99.90
21090;DHT22;10703;51.020;6.128;2022-10-19T07:43:12;9.00;99.90
21090;DHT22;10703;51.020;6.128;2022-10-19T07:45:39;9.20;99.90
21090;DHT22;10703;51.020;6.128;2022-10-19T07:48:06;9.40;99.90
21090;DHT22;10703;51.020;6.128;2022-10-19T07:50:32;10.00;99.90
21090;DHT22;10703;51.020;6.128;2022-10-19T07:52:59;10.20;99.90
21090;DHT22;10703;51.020;6.128;2022-10-19T07:55:27;10.40;99.90
21090;DHT22;10703;51.020;6.128;2022-10-19T07:57:54;10.60;99.90
21090;DHT22;10703;51.020;6.128;2022-10-19T08:00:21;10.80;99.90
21090;DHT22;10703;51.020;6.128;2022-10-19T08:02:47;11.20;99.90
21090;DHT22;10703;51.020;6.128;2022-10-19T08:05:34;11.50;99.90
21090;DHT22;10703;51.020;6.128;2022-10-19T08:08:01;11.90;99.90
21090;DHT22;10703;51.020;6.128;2022-10-19T08:10:27;12.10;99.90
21090;DHT22;10703;51.020;6.128;2022-10-19T08:12:54;12.30;99.90
21090;DHT22;10703;51.020;6.128;2022-10-19T08:15:20;12.10;99.90
21090;DHT22;10703;51.020;6.128;2022-10-19T08:17:47;12.20;99.90
21090;DHT22;10703;51.020;6.128;2022-10-19T08:20:14;12.20;99.90
21090;DHT22;10703;51.020;6.128;2022-10-19T08:22:40;12.10;99.90
21090;DHT22;10703;51.020;6.128;2022-10-19T08:25:07;12.40;99.90
21090;DHT22;10703;51.020;6.128;2022-10-19T08:27:34;12.70;99.90
21090;DHT22;10703;51.020;6.128;2022-10-19T08:30:01;12.60;99.90
21090;DHT22;10703;51.020;6.128;2022-10-19T08:32:28;12.70;99.90
21090;DHT22;10703;51.020;6.128;2022-10-19T08:34:54;12.40;99.90
21090;DHT22;10703;51.020;6.128;2022-10-19T08:37:21;12.40;99.90
21090;DHT22;10703;51.020;6.128;2022-10-19T08:40:29;12.40;99.90
21090;DHT22;10703;51.020;6.128;2022-10-19T08:43:28;12.80;99.90
21090;DHT22;10703;51.020;6.128;2022-10-19T08:46:24;13.10;99.90
21090;DHT22;10703;51.020;6.128;2022-10-19T08:48:55;13.10;99.90
21090;DHT22;10703;51.020;6.128;2022-10-19T08:51:22;12.90;99.90
21090;DHT22;10703;51.020;6.128;2022-10-19T08:53:54;12.90;99.90
21090;DHT22;10703;51.020;6.128;2022-10-19T09:02:33;13.50;99.90
21090;DHT22;10703;51.020;6.128;2022-10-19T09:05:08;13.90;99.90
21090;DHT22;10703;51.020;6.128;2022-10-19T09:07:37;13.90;99.90
21090;DHT22;10703;51.020;6.128;2022-10-19T09:12:57;14.30;99.90
21090;DHT22;10703;51.020;6.128;2022-10-19T09:15:45;14.70;99.90
21090;DHT22;10703;51.020;6.128;2022-10-19T09:18:28;15.40;99.90
21090;DHT22;10703;51.020;6.128;2022-10-19T09:21:11;15.70;99.90
21090;DHT22;10703;51.020;6.128;2022-10-19T09:23:52;16.10;99.90
21090;DHT22;10703;51.020;6.128;2022-10-19T09:26:27;16.20;99.90
21090;DHT22;10703;51.020;6.128;2022-10-19T09:29:15;16.30;99.90
21090;DHT22;10703;51.020;6.128;2022-10-19T09:31:43;16.20;99.90
21090;DHT22;10703;51.020;6.128;2022-10-19T09:34:23;15.30;99.90
21090;DHT22;10703;51.020;6.128;2022-10-19T09:36:56;14.90;99.90
21090;DHT22;10703;51.020;6.128;2022-10-19T09:39:28;14.80;99.90
21090;DHT22;10703;51.020;6.128;2022-10-19T09:42:06;15.00;99.90
21090;DHT22;10703;51.020;6.128;2022-10-19T09:44:33;14.80;99.90
21090;DHT22;10703;51.020;6.128;2022-10-19T09:47:32;14.80;99.90
21090;DHT22;10703;51.020;6.128;2022-10-19T09:50:18;15.10;99.90
21090;DHT22;10703;51.020;6.128;2022-10-19T09:52:46;14.80;99.90
21090;DHT22;10703;51.020;6.128;2022-10-19T09:57:45;14.20;99.90
21090;DHT22;10703;51.020;6.128;2022-10-19T10:00:19;13.80;99.90
21090;DHT22;10703;51.020;6.128;2022-10-19T10:02:51;13.90;99.90
21090;DHT22;10703;51.020;6.128;2022-10-19T10:05:21;13.90;99.90
21090;DHT22;10703;51.020;6.128;2022-10-19T10:07:54;14.30;99.90
21090;DHT22;10703;51.020;6.128;2022-10-19T10:10:30;14.50;99.90
21090;DHT22;10703;51.020;6.128;2022-10-19T10:13:00;14.90;99.90
21090;DHT22;10703;51.020;6.128;2022-10-19T10:15:34;15.80;99.90
21090;DHT22;10703;51.020;6.128;2022-10-19T10:18:02;15.50;99.90
21090;DHT22;10703;51.020;6.128;2022-10-19T10:20:30;15.30;99.90
21090;DHT22;10703;51.020;6.128;2022-10-19T10:23:02;15.40;99.90
21090;DHT22;10703;51.020;6.128;2022-10-19T10:25:33;15.80;99.90
21090;DHT22;10703;51.020;6.128;2022-10-19T10:28:19;15.20;99.90
21090;DHT22;10703;51.020;6.128;2022-10-19T10:30:47;14.30;99.90
21090;DHT22;10703;51.020;6.128;2022-10-19T10:33:22;13.60;99.90
21090;DHT22;10703;51.020;6.128;2022-10-19T10:36:10;13.30;99.90
21090;DHT22;10703;51.020;6.128;2022-10-19T10:38:44;13.10;99.90
21090;DHT22;10703;51.020;6.128;2022-10-19T10:41:16;13.20;99.90
21090;DHT22;10703;51.020;6.128;2022-10-19T10:46:27;13.60;99.90
21090;DHT22;10703;51.020;6.128;2022-10-19T10:49:00;14.50;99.90
21090;DHT22;10703;51.020;6.128;2022-10-19T10:51:54;14.70;99.90
21090;DHT22;10703;51.020;6.128;2022-10-19T10:54:26;15.00;99.90
21090;DHT22;10703;51.020;6.128;2022-10-19T10:57:14;15.20;99.90
21090;DHT22;10703;51.020;6.128;2022-10-19T11:00:08;15.50;99.90
21090;DHT22;10703;51.020;6.128;2022-10-19T11:07:42;17.70;99.90
21090;DHT22;10703;51.020;6.128;2022-10-19T11:13:04;18.50;99.90
21090;DHT22;10703;51.020;6.128;2022-10-19T11:18:52;17.10;99.90
21090;DHT22;10703;51.020;6.128;2022-10-19T11:21:30;16.50;99.90
21090;DHT22;10703;51.020;6.128;2022-10-19T11:24:13;16.60;99.90
21090;DHT22;10703;51.020;6.128;2022-10-19T11:27:07;17.00;99.90
21090;DHT22;10703;51.020;6.128;2022-10-19T11:29:57;17.70;99.90
21090;DHT22;10703;51.020;6.128;2022-10-19T11:32:51;17.80;99.90
21090;DHT22;10703;51.020;6.128;2022-10-19T11:35:44;18.30;99.90
21090;DHT22;10703;51.020;6.128;2022-10-19T11:38:38;18.00;99.90
21090;DHT22;10703;51.020;6.128;2022-10-19T11:46:37;19.20;99.90
21090;DHT22;10703;51.020;6.128;2022-10-19T11:51:45;19.90;99.90
21090;DHT22;10703;51.020;6.128;2022-10-19T12:00:18;19.00;99.90
21090;DHT22;10703;51.020;6.128;2022-10-19T12:03:27;19.40;99.90
21090;DHT22;10703;51.020;6.128;2022-10-19T12:09:16;18.90;99.90
21090;DHT22;10703;51.020;6.128;2022-10-19T12:14:35;19.00;99.90
21090;DHT22;10703;51.020;6.128;2022-10-19T12:17:09;19.20;99.90
21090;DHT22;10703;51.020;6.128;2022-10-19T12:19:46;19.50;99.90
21090;DHT22;10703;51.020;6.128;2022-10-19T12:22:18;20.10;99.90
21090;DHT22;10703;51.020;6.128;2022-10-19T12:24:46;20.20;99.90
21090;DHT22;10703;51.020;6.128;2022-10-19T12:27:15;20.70;99.90
21090;DHT22;10703;51.020;6.128;2022-10-19T12:29:46;19.50;99.90
21090;DHT22;10703;51.020;6.128;2022-10-19T12:32:16;19.30;99.90
21090;DHT22;10703;51.020;6.128;2022-10-19T12:34:55;19.80;99.90
21090;DHT22;10703;51.020;6.128;2022-10-19T12:37:50;19.80;99.90
21090;DHT22;10703;51.020;6.128;2022-10-19T12:40:32;19.80;99.90
21090;DHT22;10703;51.020;6.128;2022-10-19T12:43:09;19.60;99.90
21090;DHT22;10703;51.020;6.128;2022-10-19T12:45:46;19.90;99.90
21090;DHT22;10703;51.020;6.128;2022-10-19T12:48:17;19.70;99.90
21090;DHT22;10703;51.020;6.128;2022-10-19T12:53:25;19.20;99.90
21090;DHT22;10703;51.020;6.128;2022-10-19T12:58:35;19.40;99.90
21090;DHT22;10703;51.020;6.128;2022-10-19T13:01:05;19.50;99.90
21090;DHT22;10703;51.020;6.128;2022-10-19T13:03:37;19.10;99.90
21090;DHT22;10703;51.020;6.128;2022-10-19T13:06:15;19.30;99.90
21090;DHT22;10703;51.020;6.128;2022-10-19T13:11:19;19.30;99.90
21090;DHT22;10703;51.020;6.128;2022-10-19T13:35:22;19.10;99.90
21090;DHT22;10703;51.020;6.128;2022-10-19T13:40:55;19.10;99.90
21090;DHT22;10703;51.020;6.128;2022-10-19T13:43:25;19.50;99.90
21090;DHT22;10703;51.020;6.128;2022-10-19T13:51:28;18.40;99.90
21090;DHT22;10703;51.020;6.128;2022-10-19T13:56:49;18.00;99.90
21090;DHT22;10703;51.020;6.128;2022-10-19T13:59:43;18.00;99.90
21090;DHT22;10703;51.020;6.128;2022-10-19T14:02:39;18.20;99.90
21090;DHT22;10703;51.020;6.128;2022-10-19T14:08:53;19.00;99.90
21090;DHT22;10703;51.020;6.128;2022-10-19T14:11:26;19.20;99.90
21090;DHT22;10703;51.020;6.128;2022-10-19T14:14:26;19.50;99.90
21090;DHT22;10703;51.020;6.128;2022-10-19T14:16:55;20.10;99.90
21090;DHT22;10703;51.020;6.128;2022-10-19T14:19:49;20.00;99.90
21090;DHT22;10703;51.020;6.128;2022-10-19T14:22:24;20.50;99.90
21090;DHT22;10703;51.020;6.128;2022-10-19T14:24:58;20.50;99.90
21090;DHT22;10703;51.020;6.128;2022-10-19T14:27:25;20.60;99.90
21090;DHT22;10703;51.020;6.128;2022-10-19T14:29:53;20.90;99.90
21090;DHT22;10703;51.020;6.128;2022-10-19T14:32:25;20.80;99.90
21090;DHT22;10703;51.020;6.128;2022-10-19T14:34:53;21.20;99.90
21090;DHT22;10703;51.020;6.128;2022-10-19T14:37:24;21.90;99.90
21090;DHT22;10703;51.020;6.128;2022-10-19T14:40:15;21.60;99.90
21090;DHT22;10703;51.020;6.128;2022-10-19T14:42:53;20.90;99.90
21090;DHT22;10703;51.020;6.128;2022-10-19T14:45:23;20.70;99.90
21090;DHT22;10703;51.020;6.128;2022-10-19T14:47:58;20.20;99.90
21090;DHT22;10703;51.020;6.128;2022-10-19T14:53:25;20.90;99.90
21090;DHT22;10703;51.020;6.128;2022-10-19T14:55:58;20.30;99.90
21090;DHT22;10703;51.020;6.128;2022-10-19T14:58:35;20.30;99.90
21090;DHT22;10703;51.020;6.128;2022-10-19T15:01:02;20.10;99.90
21090;DHT22;10703;51.020;6.128;2022-10-19T15:03:29;19.90;99.90
21090;DHT22;10703;51.020;6.128;2022-10-19T15:06:02;19.60;99.90
21090;DHT22;10703;51.020;6.128;2022-10-19T15:08:36;19.50;99.90
21090;DHT22;10703;51.020;6.128;2022-10-19T15:11:06;19.50;99.90
21090;DHT22;10703;51.020;6.128;2022-10-19T15:13:40;19.20;99.90
21090;DHT22;10703;51.020;6.128;2022-10-19T15:17:17;19.10;99.90
21090;DHT22;10703;51.020;6.128;2022-10-19T15:19:22;18.50;99.90
21090;DHT22;10703;51.020;6.128;2022-10-19T15:22:23;18.00;99.90
21090;DHT22;10703;51.020;6.128;2022-10-19T15:27:34;18.40;99.90
21090;DHT22;10703;51.020;6.128;2022-10-19T15:32:45;17.60;99.90
21090;DHT22;10703;51.020;6.128;2022-10-19T15:35:34;17.50;99.90
21090;DHT22;10703;51.020;6.128;2022-10-19T15:38:25;17.10;99.90
21090;DHT22;10703;51.020;6.128;2022-10-19T15:40:59;17.10;99.90
21090;DHT22;10703;51.020;6.128;2022-10-19T15:53:57;15.70;99.90
21090;DHT22;10703;51.020;6.128;2022-10-19T15:56:27;15.60;99.90
21090;DHT22;10703;51.020;6.128;2022-10-19T15:58:55;15.50;99.90
21090;DHT22;10703;51.020;6.128;2022-10-19T16:01:25;15.40;99.90
21090;DHT22;10703;51.020;6.128;2022-10-19T16:03:52;15.20;99.90
21090;DHT22;10703;51.020;6.128;2022-10-19T16:06:21;15.10;99.90
21090;DHT22;10703;51.020;6.128;2022-10-19T16:08:48;15.00;99.90
21090;DHT22;10703;51.020;6.128;2022-10-19T16:11:17;14.90;99.90
21090;DHT22;10703;51.020;6.128;2022-10-19T16:13:45;14.80;99.90
21090;DHT22;10703;51.020;6.128;2022-10-19T16:16:17;14.70;99.90
21090;DHT22;10703;51.020;6.128;2022-10-19T16:18:46;14.60;99.90
21090;DHT22;10703;51.020;6.128;2022-10-19T16:21:13;14.50;99.90
21090;DHT22;10703;51.020;6.128;2022-10-19T16:23:40;14.40;99.90
21090;DHT22;10703;51.020;6.128;2022-10-19T16:26:08;14.40;99.90
21090;DHT22;10703;51.020;6.128;2022-10-19T16:28:35;14.30;99.90
21090;DHT22;10703;51.020;6.128;2022-10-19T16:31:01;14.20;99.90
21090;DHT22;10703;51.020;6.128;2022-10-19T16:33:28;14.20;99.90
21090;DHT22;10703;51.020;6.128;2022-10-19T16:35:54;14.20;99.90
21090;DHT22;10703;51.020;6.128;2022-10-19T16:38:22;14.00;99.90
21090;DHT22;10703;51.020;6.128;2022-10-19T16:40:48;13.90;99.90
21090;DHT22;10703;51.020;6.128;2022-10-19T16:43:15;13.80;99.90
21090;DHT22;10703;51.020;6.128;2022-10-19T16:45:42;13.70;99.90
21090;DHT22;10703;51.020;6.128;2022-10-19T16:48:11;13.60;99.90
21090;DHT22;10703;51.020;6.128;2022-10-19T16:50:37;13.50;99.90
21090;DHT22;10703;51.020;6.128;2022-10-19T16:53:06;13.40;99.90
21090;DHT22;10703;51.020;6.128;2022-10-19T16:55:36;13.40;99.90
21090;DHT22;10703;51.020;6.128;2022-10-19T16:58:03;13.30;99.90
21090;DHT22;10703;51.020;6.128;2022-10-19T17:00:31;13.30;99.90
21090;DHT22;10703;51.020;6.128;2022-10-19T17:02:57;13.20;99.90
21090;DHT22;10703;51.020;6.128;2022-10-19T17:05:24;13.20;99.90
21090;DHT22;10703;51.020;6.128;2022-10-19T17:07:51;13.10;99.90
21090;DHT22;10703;51.020;6.128;2022-10-19T17:10:17;13.10;99.90
21090;DHT22;10703;51.020;6.128;2022-10-19T17:12:44;13.10;99.90
21090;DHT22;10703;51.020;6.128;2022-10-19T17:15:11;13.10;99.90
21090;DHT22;10703;51.020;6.128;2022-10-19T17:17:58;13.10;99.90
21090;DHT22;10703;51.020;6.128;2022-10-19T17:20:25;13.10;99.90
21090;DHT22;10703;51.020;6.128;2022-10-19T17:22:51;13.10;99.90
21090;DHT22;10703;51.020;6.128;2022-10-19T17:25:18;13.20;99.90
21090;DHT22;10703;51.020;6.128;2022-10-19T17:27:49;13.20;99.90
21090;DHT22;10703;51.020;6.128;2022-10-19T17:30:16;13.20;99.90
21090;DHT22;10703;51.020;6.128;2022-10-19T17:32:42;13.20;99.90
21090;DHT22;10703;51.020;6.128;2022-10-19T17:35:09;13.20;99.90
21090;DHT22;10703;51.020;6.128;2022-10-19T17:37:36;13.30;99.90
21090;DHT22;10703;51.020;6.128;2022-10-19T17:40:03;13.30;99.90
21090;DHT22;10703;51.020;6.128;2022-10-19T17:42:30;13.40;99.90
21090;DHT22;10703;51.020;6.128;2022-10-19T17:44:57;13.40;99.90
21090;DHT22;10703;51.020;6.128;2022-10-19T17:47:24;13.50;99.90
21090;DHT22;10703;51.020;6.128;2022-10-19T17:49:50;13.60;99.90
21090;DHT22;10703;51.020;6.128;2022-10-19T17:52:17;13.60;99.90
21090;DHT22;10703;51.020;6.128;2022-10-19T17:54:43;13.60;99.90
21090;DHT22;10703;51.020;6.128;2022-10-19T17:57:30;13.60;99.90
21090;DHT22;10703;51.020;6.128;2022-10-19T17:59:57;13.50;99.90
21090;DHT22;10703;51.020;6.128;2022-10-19T18:02:23;13.60;99.90
21090;DHT22;10703;51.020;6.128;2022-10-19T18:04:50;13.50;99.90
21090;DHT22;10703;51.020;6.128;2022-10-19T18:07:17;13.50;99.90
21090;DHT22;10703;51.020;6.128;2022-10-19T18:09:44;13.40;99.90
21090;DHT22;10703;51.020;6.128;2022-10-19T18:12:10;13.40;99.90